createdAt,value
2022-09-15T00:00:47.028Z,4.10
2022-09-15T00:01:48.499Z,4.15
2022-09-15T00:02:50.648Z,4.07
2022-09-15T00:03:53.059Z,4.35
2022-09-15T00:04:54.501Z,4.15
2022-09-15T00:05:56.016Z,3.90
2022-09-15T00:06:57.428Z,4.40
2022-09-15T00:07:58.892Z,3.97
2022-09-15T00:09:00.524Z,4.25
2022-09-15T00:10:02.092Z,3.88
2022-09-15T00:11:05.693Z,3.55
2022-09-15T00:12:07.522Z,3.85
2022-09-15T00:13:09.026Z,3.85
2022-09-15T00:14:10.537Z,3.85
2022-09-15T00:15:14.911Z,3.63
2022-09-15T00:16:17.771Z,3.83
2022-09-15T00:17:19.453Z,3.78
2022-09-15T00:18:21.492Z,3.55
2022-09-15T00:19:22.952Z,3.45
2022-09-15T00:20:24.421Z,3.80
2022-09-15T00:21:28.858Z,3.60
2022-09-15T00:22:30.293Z,4.05
2022-09-15T00:23:31.752Z,3.70
2022-09-15T00:24:33.188Z,3.42
2022-09-15T00:25:34.813Z,3.53
2022-09-15T00:26:37.244Z,3.40
2022-09-15T00:27:38.887Z,3.40
2022-09-15T00:28:40.837Z,3.75
2022-09-15T00:29:42.655Z,3.83
2022-09-15T00:30:47.795Z,3.13
2022-09-15T00:31:49.263Z,3.53
2022-09-15T00:32:50.700Z,3.65
2022-09-15T00:33:54.229Z,3.25
2022-09-15T00:34:55.714Z,3.30
2022-09-15T00:35:57.187Z,3.45
2022-09-15T00:36:58.650Z,3.60
2022-09-15T00:38:00.082Z,3.47
2022-09-15T00:39:01.552Z,3.70
2022-09-15T00:40:03.703Z,3.30
2022-09-15T00:41:07.259Z,3.28
2022-09-15T00:42:13.888Z,3.22
2022-09-15T00:43:16.911Z,4.13
2022-09-15T00:44:49.377Z,3.30
2022-09-15T00:45:52.192Z,3.63
2022-09-15T00:47:17.833Z,3.50
2022-09-15T00:48:21.451Z,3.47
2022-09-15T00:49:27.857Z,3.25
2022-09-15T00:50:29.344Z,3.85
2022-09-15T00:51:36.015Z,3.58
2022-09-15T00:52:44.705Z,3.33
2022-09-15T00:53:48.331Z,3.55
2022-09-15T00:54:53.439Z,3.75
2022-09-15T00:55:56.569Z,3.90
2022-09-15T00:57:02.636Z,3.63
2022-09-15T00:58:06.765Z,3.63
2022-09-15T00:59:14.609Z,3.58
2022-09-15T01:00:18.601Z,3.80
2022-09-15T01:01:25.070Z,3.75
2022-09-15T01:02:28.966Z,3.70
2022-09-15T01:03:32.956Z,3.80
2022-09-15T01:04:34.514Z,3.85
2022-09-15T01:05:39.559Z,3.50
2022-09-15T01:06:45.404Z,3.33
2022-09-15T01:07:52.150Z,4.22
2022-09-15T01:09:00.564Z,4.15
2022-09-15T01:10:06.390Z,4.05
2022-09-15T01:11:08.675Z,4.10
2022-09-15T01:12:10.154Z,3.58
2022-09-15T01:13:13.672Z,4.07
2022-09-15T01:14:15.316Z,4.13
2022-09-15T01:15:16.899Z,4.10
2022-09-15T01:16:33.161Z,4.30
2022-09-15T01:17:43.920Z,3.83
2022-09-15T01:18:53.199Z,4.05
2022-09-15T01:20:30.235Z,4.30
2022-09-15T01:21:41.025Z,4.30
2022-09-15T01:22:56.727Z,4.18
2022-09-15T01:24:24.359Z,4.20
2022-09-15T01:25:45.008Z,4.03
2022-09-15T01:27:00.338Z,4.43
2022-09-15T01:28:27.934Z,4.45
2022-09-15T01:30:03.617Z,4.13
2022-09-15T01:31:13.714Z,4.30
2022-09-15T01:32:21.200Z,4.70
2022-09-15T01:33:33.834Z,4.40
2022-09-15T01:34:41.823Z,3.83
2022-09-15T01:35:55.667Z,4.15
2022-09-15T01:37:02.358Z,4.38
2022-09-15T01:38:11.307Z,3.58
2022-09-15T01:39:18.627Z,4.38
2022-09-15T01:40:23.313Z,3.78
2022-09-15T01:41:29.692Z,3.70
2022-09-15T01:42:32.980Z,4.13
2022-09-15T01:43:39.128Z,3.85
2022-09-15T01:44:47.150Z,3.58
2022-09-15T01:45:51.149Z,3.17
2022-09-15T01:46:56.926Z,4.30
2022-09-15T01:48:01.781Z,3.42
2022-09-15T01:49:06.996Z,3.20
2022-09-15T01:50:11.672Z,3.20
2022-09-15T01:51:14.158Z,3.55
2022-09-15T01:52:16.558Z,3.50
2022-09-15T01:53:20.237Z,3.38
2022-09-15T01:54:26.316Z,3.40
2022-09-15T01:55:35.294Z,3.30
2022-09-15T01:56:37.399Z,3.30
2022-09-15T01:57:38.829Z,3.30
2022-09-15T01:58:41.090Z,3.13
2022-09-15T01:59:44.344Z,3.60
2022-09-15T02:00:50.014Z,3.42
2022-09-15T02:01:57.652Z,3.65
2022-09-15T02:03:02.170Z,3.70
2022-09-15T02:04:09.595Z,2.90
2022-09-15T02:05:18.561Z,3.72
2022-09-15T02:06:24.105Z,3.20
2022-09-15T02:07:31.502Z,3.40
2022-09-15T02:08:39.652Z,3.10
2022-09-15T02:09:48.512Z,3.45
2022-09-15T02:10:57.277Z,3.33
2022-09-15T02:12:05.987Z,3.10
2022-09-15T02:13:14.075Z,3.40
2022-09-15T02:14:18.661Z,2.80
2022-09-15T02:15:25.564Z,3.00
2022-09-15T02:16:32.284Z,2.88
2022-09-15T02:17:36.113Z,3.13
2022-09-15T02:18:43.268Z,3.00
2022-09-15T02:19:49.294Z,3.22
2022-09-15T02:20:55.137Z,3.35
2022-09-15T02:22:01.370Z,2.83
2022-09-15T02:23:09.515Z,2.97
2022-09-15T02:24:15.441Z,3.03
2022-09-15T02:25:22.121Z,2.90
2022-09-15T02:26:28.242Z,2.88
2022-09-15T02:27:32.754Z,2.72
2022-09-15T02:28:37.134Z,3.42
2022-09-15T02:29:39.977Z,3.00
2022-09-15T02:30:45.002Z,3.03
2022-09-15T02:31:48.693Z,2.58
2022-09-15T02:32:55.217Z,3.15
2022-09-15T02:34:01.099Z,3.00
2022-09-15T02:35:05.614Z,2.92
2022-09-15T02:36:09.721Z,3.13
2022-09-15T02:37:12.460Z,3.25
2022-09-15T02:38:14.964Z,2.90
2022-09-15T02:39:20.298Z,3.00
2022-09-15T02:40:22.402Z,2.80
2022-09-15T02:41:24.205Z,2.92
2022-09-15T02:42:26.554Z,2.42
2022-09-15T02:43:28.064Z,2.90
2022-09-15T02:44:30.029Z,2.90
2022-09-15T02:45:32.002Z,2.55
2022-09-15T02:46:35.094Z,3.30
2022-09-15T02:47:36.555Z,2.75
2022-09-15T02:48:38.009Z,2.90
2022-09-15T02:49:39.441Z,2.92
2022-09-15T02:50:41.387Z,3.20
2022-09-15T02:51:42.820Z,2.90
2022-09-15T02:52:44.623Z,2.92
2022-09-15T02:53:46.053Z,2.97
2022-09-15T02:54:47.492Z,3.08
2022-09-15T02:55:48.941Z,2.85
2022-09-15T02:56:50.339Z,3.30
2022-09-15T02:57:51.790Z,2.53
2022-09-15T02:58:53.282Z,3.20
2022-09-15T02:59:54.691Z,2.90
2022-09-15T03:00:56.163Z,2.97
2022-09-15T03:01:58.981Z,2.58
2022-09-15T03:03:00.473Z,2.88
2022-09-15T03:04:04.075Z,2.85
2022-09-15T03:05:07.034Z,2.40
2022-09-15T03:06:08.993Z,2.55
2022-09-15T03:07:10.461Z,2.40
2022-09-15T03:08:11.902Z,2.80
2022-09-15T03:09:13.319Z,2.80
2022-09-15T03:10:15.665Z,3.13
2022-09-15T03:11:18.060Z,2.70
2022-09-15T03:12:19.515Z,2.40
2022-09-15T03:13:20.931Z,2.92
2022-09-15T03:14:22.429Z,2.58
2022-09-15T03:15:25.637Z,2.47
2022-09-15T03:16:28.565Z,2.85
2022-09-15T03:17:35.062Z,2.40
2022-09-15T03:18:37.230Z,2.50
2022-09-15T03:19:38.784Z,2.80
2022-09-15T03:20:40.243Z,2.70
2022-09-15T03:21:41.678Z,2.67
2022-09-15T03:22:43.462Z,3.00
2022-09-15T03:23:45.557Z,2.92
2022-09-15T03:24:47.051Z,2.53
2022-09-15T03:25:48.470Z,2.80
2022-09-15T03:26:50.061Z,2.65
2022-09-15T03:27:51.479Z,2.80
2022-09-15T03:28:53.161Z,3.15
2022-09-15T03:29:54.612Z,2.97
2022-09-15T03:30:56.308Z,3.45
2022-09-15T03:31:57.838Z,2.95
2022-09-15T03:33:00.682Z,3.20
2022-09-15T03:34:02.135Z,2.72
2022-09-15T03:35:04.438Z,3.35
2022-09-15T03:36:06.595Z,3.42
2022-09-15T03:37:08.076Z,3.20
2022-09-15T03:38:09.498Z,3.28
2022-09-15T03:39:12.320Z,3.30
2022-09-15T03:40:13.795Z,3.70
2022-09-15T03:41:15.403Z,3.38
2022-09-15T03:42:16.967Z,3.40
2022-09-15T03:43:18.871Z,3.30
2022-09-15T03:44:20.355Z,3.35
2022-09-15T03:45:21.759Z,3.08
2022-09-15T03:46:23.227Z,3.45
2022-09-15T03:47:24.678Z,3.60
2022-09-15T03:48:29.911Z,3.80
2022-09-15T03:49:31.385Z,3.53
2022-09-15T03:50:33.784Z,3.70
2022-09-15T03:51:35.194Z,3.42
2022-09-15T03:52:36.682Z,3.70
2022-09-15T03:53:39.248Z,3.65
2022-09-15T03:54:40.673Z,4.18
2022-09-15T03:55:42.194Z,3.67
2022-09-15T03:56:43.948Z,3.55
2022-09-15T03:57:45.374Z,3.60
2022-09-15T03:58:46.830Z,3.80
2022-09-15T03:59:48.310Z,3.22
2022-09-15T04:00:49.863Z,3.40
2022-09-15T04:01:51.444Z,3.25
2022-09-15T04:02:52.926Z,4.07
2022-09-15T04:03:56.393Z,3.58
2022-09-15T04:04:57.820Z,3.80
2022-09-15T04:05:59.346Z,3.90
2022-09-15T04:07:00.783Z,3.65
2022-09-15T04:08:02.837Z,3.47
2022-09-15T04:09:04.748Z,3.67
2022-09-15T04:10:06.929Z,3.63
2022-09-15T04:11:10.247Z,3.78
2022-09-15T04:12:11.713Z,3.50
2022-09-15T04:13:13.191Z,3.63
2022-09-15T04:14:14.671Z,3.60
2022-09-15T04:15:16.291Z,3.63
2022-09-15T04:16:21.938Z,4.00
2022-09-15T04:17:23.515Z,3.83
2022-09-15T04:18:24.985Z,3.75
2022-09-15T04:19:27.805Z,3.90
2022-09-15T04:20:29.257Z,3.72
2022-09-15T04:21:30.723Z,3.88
2022-09-15T04:22:32.158Z,3.72
2022-09-15T04:23:34.593Z,3.67
2022-09-15T04:24:36.071Z,6.60
2022-09-15T04:25:37.506Z,7.70
2022-09-15T04:26:39.021Z,6.45
2022-09-15T04:27:40.554Z,4.20
2022-09-15T04:28:42.000Z,3.63
2022-09-15T04:29:43.640Z,3.95
2022-09-15T04:30:45.051Z,3.72
2022-09-15T04:31:46.636Z,3.47
2022-09-15T04:32:48.307Z,4.10
2022-09-15T04:33:53.002Z,4.60
2022-09-15T04:34:56.017Z,4.00
2022-09-15T04:35:58.850Z,4.18
2022-09-15T04:37:00.267Z,4.30
2022-09-15T04:38:01.753Z,4.75
2022-09-15T04:39:04.029Z,4.30
2022-09-15T04:40:06.449Z,4.30
2022-09-15T04:41:08.108Z,4.30
2022-09-15T04:42:09.528Z,4.03
2022-09-15T04:43:10.941Z,3.75
2022-09-15T04:44:12.382Z,4.15
2022-09-15T04:45:13.795Z,4.50
2022-09-15T04:46:16.396Z,4.22
2022-09-15T04:47:17.979Z,4.18
2022-09-15T04:48:19.521Z,4.35
2022-09-15T04:49:20.961Z,4.15
2022-09-15T04:50:23.699Z,5.05
2022-09-15T04:51:25.525Z,7.88
2022-09-15T04:52:26.959Z,6.85
2022-09-15T04:53:28.658Z,6.82
2022-09-15T04:54:30.095Z,6.22
2022-09-15T04:55:32.534Z,4.50
2022-09-15T04:56:33.985Z,3.80
2022-09-15T04:57:35.473Z,4.47
2022-09-15T04:58:38.239Z,4.07
2022-09-15T04:59:39.657Z,4.18
2022-09-15T05:00:42.315Z,4.20
2022-09-15T05:01:44.416Z,4.70
2022-09-15T05:02:45.864Z,4.20
2022-09-15T05:03:47.308Z,4.20
2022-09-15T05:04:48.885Z,4.20
2022-09-15T05:05:51.680Z,4.13
2022-09-15T05:06:53.129Z,4.72
2022-09-15T05:07:54.570Z,4.18
2022-09-15T05:08:57.304Z,4.82
2022-09-15T05:09:58.777Z,4.70
2022-09-15T05:11:00.862Z,4.35
2022-09-15T05:12:02.359Z,4.80
2022-09-15T05:13:03.919Z,4.15
2022-09-15T05:14:06.026Z,4.10
2022-09-15T05:15:08.263Z,4.25
2022-09-15T05:16:11.242Z,3.97
2022-09-15T05:17:12.793Z,4.40
2022-09-15T05:18:14.200Z,4.38
2022-09-15T05:19:15.826Z,4.15
2022-09-15T05:20:17.796Z,4.20
2022-09-15T05:21:21.606Z,4.38
2022-09-15T05:22:23.044Z,5.65
2022-09-15T05:23:24.477Z,6.72
2022-09-15T05:24:25.943Z,4.55
2022-09-15T05:25:27.360Z,5.88
2022-09-15T05:26:29.743Z,4.82
2022-09-15T05:27:31.368Z,4.45
2022-09-15T05:28:34.407Z,4.55
2022-09-15T05:29:35.879Z,4.68
2022-09-15T05:30:43.600Z,4.55
2022-09-15T05:31:45.830Z,4.55
2022-09-15T05:32:47.311Z,4.28
2022-09-15T05:33:50.347Z,4.15
2022-09-15T05:34:51.814Z,4.60
2022-09-15T05:35:54.528Z,4.32
2022-09-15T05:36:57.316Z,4.50
2022-09-15T05:37:58.754Z,4.00
2022-09-15T05:39:00.284Z,4.55
2022-09-15T05:40:06.310Z,4.07
2022-09-15T05:41:11.501Z,3.85
2022-09-15T05:42:12.930Z,3.95
2022-09-15T05:43:15.275Z,3.80
2022-09-15T05:44:16.751Z,4.28
2022-09-15T05:45:18.225Z,4.00
2022-09-15T05:46:19.950Z,4.00
2022-09-15T05:47:21.395Z,4.15
2022-09-15T05:48:22.961Z,4.05
2022-09-15T05:49:24.498Z,3.97
2022-09-15T05:50:25.977Z,3.80
2022-09-15T05:51:27.457Z,3.55
2022-09-15T05:52:30.199Z,3.58
2022-09-15T05:53:33.321Z,3.97
2022-09-15T05:54:34.821Z,3.92
2022-09-15T05:55:37.152Z,3.60
2022-09-15T05:56:38.567Z,4.32
2022-09-15T05:57:39.993Z,3.58
2022-09-15T05:58:43.399Z,4.00
2022-09-15T05:59:44.833Z,3.42
2022-09-15T06:00:46.243Z,3.80
2022-09-15T06:01:47.694Z,3.60
2022-09-15T06:02:49.232Z,3.28
2022-09-15T06:03:51.059Z,3.40
2022-09-15T06:04:52.479Z,3.67
2022-09-15T06:05:58.743Z,3.40
2022-09-15T06:07:00.176Z,3.17
2022-09-15T06:08:03.067Z,3.45
2022-09-15T06:09:06.000Z,3.55
2022-09-15T06:10:08.769Z,3.58
2022-09-15T06:11:12.001Z,3.63
2022-09-15T06:12:13.411Z,3.75
2022-09-15T06:13:14.910Z,3.47
2022-09-15T06:14:16.405Z,3.25
2022-09-15T06:15:17.845Z,3.95
2022-09-15T06:16:21.326Z,3.55
2022-09-15T06:17:22.918Z,4.22
2022-09-15T06:18:24.365Z,3.38
2022-09-15T06:19:25.803Z,3.40
2022-09-15T06:20:27.413Z,3.30
2022-09-15T06:21:30.803Z,3.30
2022-09-15T06:22:32.492Z,3.42
2022-09-15T06:23:36.130Z,4.03
2022-09-15T06:24:37.643Z,3.25
2022-09-15T06:25:39.073Z,3.10
2022-09-15T06:26:40.542Z,3.38
2022-09-15T06:27:42.160Z,3.53
2022-09-15T06:28:48.407Z,3.25
2022-09-15T06:29:49.903Z,3.50
2022-09-15T06:30:51.313Z,3.03
2022-09-15T06:31:52.762Z,3.15
2022-09-15T06:32:54.221Z,3.15
2022-09-15T06:33:56.789Z,3.85
2022-09-15T06:34:58.228Z,3.05
2022-09-15T06:36:03.188Z,3.22
2022-09-15T06:37:04.738Z,2.80
2022-09-15T06:38:06.216Z,2.72
2022-09-15T06:39:09.045Z,3.00
2022-09-15T06:40:11.540Z,2.75
2022-09-15T06:41:13.527Z,3.50
2022-09-15T06:42:15.399Z,2.80
2022-09-15T06:43:16.836Z,2.80
2022-09-15T06:44:18.476Z,2.70
2022-09-15T06:45:19.942Z,2.60
2022-09-15T06:46:24.091Z,2.58
2022-09-15T06:47:25.594Z,2.42
2022-09-15T06:48:27.059Z,2.10
2022-09-15T06:49:28.501Z,2.55
2022-09-15T06:50:29.952Z,2.40
2022-09-15T06:51:31.474Z,2.30
2022-09-15T06:52:32.911Z,2.30
2022-09-15T06:53:36.576Z,2.17
2022-09-15T06:54:39.387Z,2.25
2022-09-15T06:55:40.829Z,2.35
2022-09-15T06:56:42.957Z,2.53
2022-09-15T06:57:44.422Z,2.53
2022-09-15T06:58:47.172Z,2.70
2022-09-15T06:59:48.609Z,2.38
2022-09-15T07:00:51.308Z,2.40
2022-09-15T07:01:53.518Z,2.30
2022-09-15T07:02:55.072Z,2.40
2022-09-15T07:03:58.159Z,2.20
2022-09-15T07:04:59.595Z,2.20
2022-09-15T07:06:01.197Z,2.30
2022-09-15T07:07:02.708Z,2.17
2022-09-15T07:08:04.367Z,2.22
2022-09-15T07:09:06.297Z,2.30
2022-09-15T07:10:09.674Z,2.20
2022-09-15T07:11:11.197Z,2.17
2022-09-15T07:12:12.758Z,2.00
2022-09-15T07:13:14.585Z,2.08
2022-09-15T07:14:16.030Z,1.70
2022-09-15T07:15:17.490Z,1.90
2022-09-15T07:16:20.013Z,1.83
2022-09-15T07:17:21.521Z,1.73
2022-09-15T07:18:23.991Z,1.67
2022-09-15T07:19:25.394Z,1.85
2022-09-15T07:20:26.834Z,1.92
2022-09-15T07:21:28.769Z,1.83
2022-09-15T07:22:30.362Z,2.15
2022-09-15T07:23:32.753Z,2.10
2022-09-15T07:24:34.188Z,1.63
2022-09-15T07:25:37.018Z,2.10
2022-09-15T07:26:38.500Z,1.90
2022-09-15T07:27:39.958Z,2.10
2022-09-15T07:28:43.415Z,2.22
2022-09-15T07:29:45.353Z,2.00
2022-09-15T07:30:50.778Z,2.40
2022-09-15T07:31:52.291Z,2.10
2022-09-15T07:32:53.802Z,2.42
2022-09-15T07:33:55.405Z,2.20
2022-09-15T07:34:58.470Z,2.30
2022-09-15T07:36:00.710Z,2.03
2022-09-15T07:37:02.142Z,2.17
2022-09-15T07:38:03.605Z,2.08
2022-09-15T07:39:05.906Z,1.90
2022-09-15T07:40:08.191Z,2.08
2022-09-15T07:41:12.436Z,2.55
2022-09-15T07:42:15.448Z,1.88
2022-09-15T07:43:17.050Z,1.85
2022-09-15T07:44:18.519Z,2.03
2022-09-15T07:45:20.051Z,2.25
2022-09-15T07:46:23.368Z,2.00
2022-09-15T07:47:24.821Z,2.10
2022-09-15T07:48:26.698Z,1.80
2022-09-15T07:49:28.392Z,2.15
2022-09-15T07:50:29.837Z,2.15
2022-09-15T07:51:31.310Z,1.70
2022-09-15T07:52:32.885Z,2.20
2022-09-15T07:53:34.345Z,2.13
2022-09-15T07:54:35.853Z,2.20
2022-09-15T07:55:37.327Z,1.90
2022-09-15T07:56:40.118Z,2.05
2022-09-15T07:57:41.545Z,1.83
2022-09-15T07:58:42.997Z,1.80
2022-09-15T07:59:44.431Z,1.42
2022-09-15T08:00:46.036Z,6.45
2022-09-15T08:01:47.556Z,1.70
2022-09-15T08:02:49.032Z,1.42
2022-09-15T08:03:51.645Z,2.00
2022-09-15T08:04:53.195Z,1.50
2022-09-15T08:05:57.330Z,1.45
2022-09-15T08:06:58.736Z,1.55
2022-09-15T08:08:00.195Z,1.45
2022-09-15T08:09:02.116Z,1.50
2022-09-15T08:10:03.881Z,1.50
2022-09-15T08:11:07.264Z,1.25
2022-09-15T08:12:10.383Z,1.67
2022-09-15T08:13:11.797Z,1.50
2022-09-15T08:14:13.248Z,1.70
2022-09-15T08:15:14.883Z,1.73
2022-09-15T08:16:18.461Z,2.40
2022-09-15T08:17:19.935Z,1.35
2022-09-15T08:18:21.372Z,1.60
2022-09-15T08:19:22.816Z,1.50
2022-09-15T08:20:24.241Z,1.52
2022-09-15T08:21:25.715Z,1.60
2022-09-15T08:22:27.178Z,1.80
2022-09-15T08:23:28.643Z,1.33
2022-09-15T08:24:30.119Z,1.42
2022-09-15T08:25:31.585Z,1.65
2022-09-15T08:26:33.052Z,1.80
2022-09-15T08:27:35.912Z,1.50
2022-09-15T08:28:37.685Z,1.40
2022-09-15T08:29:39.124Z,1.55
2022-09-15T08:30:40.572Z,1.35
2022-09-15T08:31:42.094Z,1.27
2022-09-15T08:32:43.583Z,1.40
2022-09-15T08:33:47.793Z,1.60
2022-09-15T08:34:49.323Z,1.38
2022-09-15T08:35:50.822Z,1.48
2022-09-15T08:36:52.268Z,1.60
2022-09-15T08:37:54.156Z,1.70
2022-09-15T08:38:55.782Z,1.40
2022-09-15T08:39:57.369Z,1.38
2022-09-15T08:41:01.781Z,1.52
2022-09-15T08:42:04.595Z,2.05
2022-09-15T08:43:16.347Z,1.75
2022-09-15T08:44:30.531Z,1.60
2022-09-15T08:45:44.187Z,1.48
2022-09-15T08:46:53.021Z,1.70
2022-09-15T08:47:58.989Z,1.77
2022-09-15T08:49:07.856Z,1.55
2022-09-15T08:50:25.903Z,1.80
2022-09-15T08:51:34.705Z,1.50
2022-09-15T08:52:40.754Z,1.20
2022-09-15T08:53:46.426Z,1.20
2022-09-15T08:54:50.679Z,1.20
2022-09-15T08:55:54.851Z,1.33
2022-09-15T08:56:58.082Z,1.10
2022-09-15T08:57:59.769Z,1.02
2022-09-15T08:59:02.887Z,0.88
2022-09-15T09:00:06.842Z,1.10
2022-09-15T09:01:19.757Z,1.00
2022-09-15T09:02:50.110Z,1.20
2022-09-15T09:04:17.545Z,1.13
2022-09-15T09:05:33.670Z,0.90
2022-09-15T09:06:43.230Z,1.48
2022-09-15T09:08:01.619Z,1.05
2022-09-15T09:09:19.543Z,1.10
2022-09-15T09:10:28.000Z,1.20
2022-09-15T09:11:42.520Z,1.20
2022-09-15T09:13:03.306Z,1.00
2022-09-15T09:14:17.039Z,1.13
2022-09-15T09:15:32.687Z,1.00
2022-09-15T09:16:50.908Z,1.00
2022-09-15T09:18:15.688Z,1.02
2022-09-15T09:19:41.963Z,0.80
2022-09-15T09:20:52.489Z,0.82
2022-09-15T09:21:59.797Z,0.82
2022-09-15T09:23:03.968Z,0.90
2022-09-15T09:24:12.729Z,0.90
2022-09-15T09:25:27.287Z,0.68
2022-09-15T09:26:32.416Z,0.98
2022-09-15T09:27:34.748Z,0.77
2022-09-15T09:28:40.066Z,0.90
2022-09-15T09:29:45.876Z,0.70
2022-09-15T09:30:48.455Z,0.73
2022-09-15T09:31:52.894Z,0.90
2022-09-15T09:33:03.421Z,0.60
2022-09-15T09:34:18.164Z,0.70
2022-09-15T09:35:28.515Z,0.77
2022-09-15T09:36:30.163Z,0.40
2022-09-15T09:37:33.457Z,0.60
2022-09-15T09:38:36.664Z,0.55
2022-09-15T09:39:38.238Z,0.50
2022-09-15T09:40:39.782Z,0.60
2022-09-15T09:41:42.043Z,0.60
2022-09-15T09:42:44.546Z,0.82
2022-09-15T09:43:48.571Z,0.40
2022-09-15T09:44:51.319Z,0.60
2022-09-15T09:45:52.827Z,0.55
2022-09-15T09:46:54.302Z,0.60
2022-09-15T09:48:01.901Z,0.55
2022-09-15T09:49:10.798Z,0.70
2022-09-15T09:50:33.998Z,0.65
2022-09-15T09:51:38.298Z,0.63
2022-09-15T09:52:39.769Z,0.82
2022-09-15T09:53:41.333Z,0.80
2022-09-15T09:54:42.777Z,0.80
2022-09-15T09:55:44.224Z,0.80
2022-09-15T09:56:46.417Z,0.90
2022-09-15T09:57:47.869Z,0.90
2022-09-15T09:58:49.828Z,1.00
2022-09-15T09:59:52.669Z,0.90
2022-09-15T10:00:54.109Z,1.08
2022-09-15T10:02:12.628Z,1.40
2022-09-15T10:03:16.938Z,0.90
2022-09-15T10:04:19.586Z,0.80
2022-09-15T10:05:21.330Z,0.70
2022-09-15T10:06:22.981Z,0.90
2022-09-15T10:07:26.418Z,0.65
2022-09-15T10:08:27.982Z,0.80
2022-09-15T10:09:33.254Z,0.70
2022-09-15T10:10:35.065Z,0.70
2022-09-15T10:11:40.644Z,0.70
2022-09-15T10:12:42.111Z,0.65
2022-09-15T10:13:51.753Z,0.68
2022-09-15T10:14:57.565Z,0.70
2022-09-15T10:16:02.190Z,0.85
2022-09-15T10:17:07.285Z,0.80
2022-09-15T10:18:27.667Z,0.80
2022-09-15T10:19:31.964Z,0.90
2022-09-15T10:20:38.160Z,0.82
2022-09-15T10:21:40.388Z,0.80
2022-09-15T10:22:41.903Z,0.80
2022-09-15T10:23:43.395Z,0.82
2022-09-15T10:24:44.855Z,0.90
2022-09-15T10:26:01.836Z,0.65
2022-09-15T10:27:08.399Z,0.80
2022-09-15T10:28:14.664Z,0.70
2022-09-15T10:29:18.408Z,0.70
2022-09-15T10:30:22.389Z,0.77
2022-09-15T10:31:30.311Z,0.80
2022-09-15T10:32:31.797Z,0.70
2022-09-15T10:33:34.670Z,0.80
2022-09-15T10:34:36.351Z,0.80
2022-09-15T10:35:42.143Z,0.90
2022-09-15T10:36:43.933Z,0.80
2022-09-15T10:37:59.830Z,0.77
2022-09-15T10:39:12.810Z,0.77
2022-09-15T10:40:29.774Z,0.70
2022-09-15T10:41:32.531Z,0.82
2022-09-15T10:42:50.463Z,0.80
2022-09-15T10:44:14.229Z,0.93
2022-09-15T10:45:26.154Z,0.70
2022-09-15T10:46:31.193Z,0.70
2022-09-15T10:47:47.937Z,0.73
2022-09-15T10:49:04.692Z,0.70
2022-09-15T10:50:16.044Z,0.70
2022-09-15T10:52:36.584Z,0.90
2022-09-15T10:54:01.408Z,0.80
2022-09-15T10:55:51.752Z,0.80
2022-09-15T10:57:01.569Z,0.70
2022-09-15T10:58:19.177Z,0.88
2022-09-15T10:59:33.492Z,0.90
2022-09-15T11:00:44.347Z,0.80
2022-09-15T11:01:59.752Z,0.98
2022-09-15T11:03:19.728Z,0.70
2022-09-15T11:04:42.349Z,1.02
2022-09-15T11:05:58.228Z,0.90
2022-09-15T11:07:08.637Z,0.90
2022-09-15T11:08:25.520Z,1.10
2022-09-15T11:09:33.309Z,1.30
2022-09-15T11:10:45.779Z,1.40
2022-09-15T11:12:10.825Z,1.58
2022-09-15T11:13:23.820Z,1.67
2022-09-15T11:14:41.971Z,1.70
2022-09-15T11:15:57.133Z,1.67
2022-09-15T11:17:13.655Z,1.70
2022-09-15T11:18:49.557Z,1.98
2022-09-15T11:20:03.518Z,1.90
2022-09-15T11:21:22.969Z,1.90
2022-09-15T11:22:31.855Z,1.70
2022-09-15T11:23:36.957Z,1.90
2022-09-15T11:24:44.965Z,1.70
2022-09-15T11:25:52.809Z,1.90
2022-09-15T11:26:58.084Z,1.85
2022-09-15T11:28:06.108Z,1.98
2022-09-15T11:29:16.168Z,1.80
2022-09-15T11:30:19.767Z,1.90
2022-09-15T11:31:27.120Z,1.80
2022-09-15T11:32:32.388Z,1.90
2022-09-15T11:33:42.656Z,1.67
2022-09-15T11:34:51.008Z,1.80
2022-09-15T11:35:58.512Z,1.65
2022-09-15T11:37:04.988Z,1.65
2022-09-15T11:38:33.406Z,1.60
2022-09-15T11:39:39.191Z,1.80
2022-09-15T11:40:48.096Z,1.70
2022-09-15T11:41:53.584Z,1.52
2022-09-15T11:43:00.623Z,1.70
2022-09-15T11:44:16.814Z,1.90
2022-09-15T11:45:27.356Z,2.00
2022-09-15T11:46:52.061Z,1.80
2022-09-15T11:47:58.327Z,1.70
2022-09-15T11:49:05.236Z,1.80
2022-09-15T11:50:16.109Z,1.80
2022-09-15T11:51:23.026Z,1.73
2022-09-15T11:52:46.650Z,2.10
2022-09-15T11:53:53.971Z,2.15
2022-09-15T11:55:02.596Z,2.00
2022-09-15T11:56:13.204Z,2.10
2022-09-15T11:57:18.295Z,2.85
2022-09-15T11:58:28.792Z,2.67
2022-09-15T11:59:39.351Z,2.95
2022-09-15T12:00:48.522Z,2.25
2022-09-15T12:01:59.366Z,2.10
2022-09-15T12:03:17.856Z,2.33
2022-09-15T12:04:25.449Z,2.38
2022-09-15T12:05:32.937Z,2.13
2022-09-15T12:06:45.405Z,2.30
2022-09-15T12:07:53.949Z,2.08
2022-09-15T12:08:59.230Z,2.00
2022-09-15T12:10:06.958Z,1.98
2022-09-15T12:11:17.095Z,2.15
2022-09-15T12:12:21.404Z,1.83
2022-09-15T12:13:25.370Z,2.00
2022-09-15T12:14:32.121Z,2.25
2022-09-15T12:15:33.611Z,2.13
2022-09-15T12:16:35.423Z,2.13
2022-09-15T12:17:44.427Z,2.17
2022-09-15T12:18:51.001Z,2.10
2022-09-15T12:19:57.467Z,1.60
2022-09-15T12:21:04.804Z,1.60
2022-09-15T12:22:14.441Z,2.00
2022-09-15T12:23:24.598Z,1.38
2022-09-15T12:24:34.669Z,1.52
2022-09-15T12:25:55.650Z,1.48
2022-09-15T12:26:59.772Z,2.10
2022-09-15T12:28:26.570Z,2.03
2022-09-15T12:29:39.466Z,1.83
2022-09-15T12:30:43.504Z,2.03
2022-09-15T12:31:45.712Z,1.73
2022-09-15T12:32:48.457Z,1.92
2022-09-15T12:33:54.380Z,1.60
2022-09-15T12:35:25.706Z,1.77
2022-09-15T12:36:36.168Z,1.45
2022-09-15T12:37:42.385Z,1.67
2022-09-15T12:38:47.825Z,1.70
2022-09-15T12:39:49.371Z,1.48
2022-09-15T12:40:57.429Z,1.60
2022-09-15T12:42:08.533Z,1.63
2022-09-15T12:43:20.677Z,1.50
2022-09-15T12:44:28.368Z,1.50
2022-09-15T12:45:32.480Z,1.75
2022-09-15T12:46:34.008Z,1.60
2022-09-15T12:47:39.087Z,2.10
2022-09-15T12:48:46.793Z,1.45
2022-09-15T12:49:51.282Z,1.70
2022-09-15T12:50:55.659Z,1.60
2022-09-15T12:51:59.048Z,1.70
2022-09-15T12:53:02.522Z,1.60
2022-09-15T12:54:05.874Z,1.30
2022-09-15T12:55:17.766Z,1.13
2022-09-15T12:56:23.825Z,1.60
2022-09-15T12:57:28.999Z,1.10
2022-09-15T12:58:35.993Z,1.38
2022-09-15T12:59:37.492Z,1.27
2022-09-15T13:00:54.766Z,1.40
2022-09-15T13:02:01.882Z,0.90
2022-09-15T13:03:05.839Z,1.08
2022-09-15T13:04:28.219Z,0.75
2022-09-15T13:06:15.291Z,0.95
2022-09-15T13:07:51.429Z,0.70
2022-09-15T13:09:12.056Z,0.57
2022-09-15T13:10:27.539Z,0.85
2022-09-15T13:11:39.661Z,0.70
2022-09-15T13:12:47.201Z,0.68
2022-09-15T13:13:52.415Z,0.55
2022-09-15T13:14:56.313Z,0.63
2022-09-15T13:15:58.100Z,0.43
2022-09-15T13:17:05.276Z,0.88
2022-09-15T13:18:07.248Z,0.50
2022-09-15T13:19:14.004Z,0.40
2022-09-15T13:20:23.790Z,0.80
2022-09-15T13:21:26.415Z,0.40
2022-09-15T13:22:32.411Z,0.30
2022-09-15T13:23:38.203Z,0.40
2022-09-15T13:24:47.649Z,0.45
2022-09-15T13:25:52.187Z,0.40
2022-09-15T13:26:55.887Z,0.20
2022-09-15T13:27:59.978Z,0.40
2022-09-15T13:29:02.503Z,0.43
2022-09-15T13:30:21.488Z,0.40
2022-09-15T13:31:37.190Z,0.40
2022-09-15T13:32:45.214Z,0.28
2022-09-15T13:35:46.179Z,0.40
2022-09-15T13:38:56.920Z,0.30
2022-09-15T13:40:26.200Z,0.20
2022-09-15T13:41:53.770Z,0.20
2022-09-15T13:43:11.994Z,0.20
2022-09-15T13:44:47.628Z,0.15
2022-09-15T13:46:01.009Z,0.20
2022-09-15T13:47:14.987Z,0.20
2022-09-15T13:48:41.157Z,0.20
2022-09-15T13:49:50.103Z,0.20
2022-09-15T13:50:58.137Z,0.30
2022-09-15T13:52:05.735Z,0.30
2022-09-15T13:53:24.373Z,0.40
2022-09-15T13:54:25.901Z,0.20
2022-09-15T13:55:29.323Z,0.40
2022-09-15T13:56:33.522Z,0.35
2022-09-15T13:59:12.261Z,0.22
2022-09-15T14:00:22.819Z,0.63
2022-09-15T14:01:25.280Z,0.40
2022-09-15T14:02:27.000Z,0.80
2022-09-15T14:03:36.219Z,1.23
2022-09-15T14:04:37.714Z,1.63
2022-09-15T14:05:39.491Z,2.03
2022-09-15T14:06:45.451Z,2.17
2022-09-15T14:07:52.888Z,1.85
2022-09-15T14:09:00.030Z,2.38
2022-09-15T14:10:01.628Z,1.40
2022-09-15T14:11:05.643Z,1.77
2022-09-15T14:12:10.328Z,1.85
2022-09-15T14:13:18.510Z,1.90
2022-09-15T14:14:37.264Z,2.38
2022-09-15T14:15:38.710Z,1.92
2022-09-15T14:16:49.354Z,1.70
2022-09-15T14:17:51.157Z,3.05
2022-09-15T14:18:54.179Z,2.50
2022-09-15T14:19:57.563Z,3.60
2022-09-15T14:21:00.729Z,4.57
2022-09-15T14:22:23.819Z,3.05
2022-09-15T14:23:28.648Z,5.05
2022-09-15T14:24:31.573Z,5.97
2022-09-15T14:25:33.045Z,6.25
2022-09-15T14:26:35.872Z,4.75
2022-09-15T14:27:44.127Z,6.15
2022-09-15T14:28:53.286Z,8.35
2022-09-15T14:29:57.499Z,5.30
2022-09-15T14:31:02.281Z,4.93
2022-09-15T14:32:04.070Z,5.40
2022-09-15T14:33:05.665Z,4.45
2022-09-15T14:34:14.758Z,6.63
2022-09-15T14:35:19.955Z,5.75
2022-09-15T14:36:25.247Z,5.47
2022-09-15T14:37:29.386Z,6.45
2022-09-15T14:38:30.891Z,6.38